• Join FlightAware (Why Join?)
  • Login
  • US Flag 
08:05PM EDT


 

Airport Tracker/Info


-or-


 

Live Flight TrackerFlight Track Log ✈ AAY581 ✈ 30-Apr-2012 ✈ KBLI - KLAS

Flight Track Log - Related Links

Times and Time Zones

All times are in EDT time to prevent confusion due to time zone crossing. See the AAY581 flight status page for this flight to view local times or setup timezone preferences in your user account.

Time Position Orientation Groundspeed Altitude Reporting Facility
EDT Latitude Longitude Course Direction KTS MPH feet Rate Location/Type
03:42PM 47.4619 -122.3678 166° South 425 489 28,300  Level Seattle Center
03:48PM 46.7053 -122.0964 166° South 464 534 36,100 1,260 Climbing Seattle Center
03:49PM 46.5558 -122.0436 166° South 465 535 37,400 1,140 Climbing Seattle Center
03:50PM 46.4319 -121.9981 167° South 464 534 38,500 780 Climbing Seattle Center
03:51PM 46.3067 -121.9550 166° South 467 537 39,000 240 Climbing Seattle Center
03:52PM 46.1686 -121.9064 167° South 472 543 39,000  Level Seattle Center
03:53PM 46.0406 -121.8633 167° South 474 545 39,000  Level Seattle Center
03:54PM 45.9133 -121.8197 167° South 475 547 39,000  Level Seattle Center
03:55PM 45.7867 -121.7769 167° South 472 543 39,000  Level Seattle Center
03:56PM 45.6603 -121.7344 167° South 471 542 39,000  Level Seattle Center
03:57PM 45.5339 -121.6928 166° South 471 542 39,000  Level Seattle Center
03:58PM 45.3806 -121.6397 166° South 475 547 39,000  Level Seattle Center
03:59PM 45.2522 -121.5956 167° South 477 549 39,000  Level Seattle Center
04:00PM 45.1228 -121.5517 167° South 481 554 39,000  Level Seattle Center
04:01PM 44.9947 -121.5092 166° South 480 552 39,000  Level Seattle Center
04:02PM 44.8719 -121.4672 167° South 466 536 39,000  Level Seattle Center
04:03PM 44.7508 -121.4278 167° South 455 524 39,000  Level Seattle Center
04:04PM 44.6094 -121.3819 167° South 446 513 39,000  Level Seattle Center
04:05PM 44.4878 -121.3433 167° South 448 516 39,000  Level Seattle Center
04:06PM 44.3658 -121.3044 167° South 451 519 39,000  Level Seattle Center
04:07PM 44.2444 -121.2653 167° South 451 519 39,000  Level Seattle Center
04:08PM 44.1228 -121.2272 167° South 451 519 39,000  Level Seattle Center
04:09PM 43.9994 -121.1883 167° South 455 524 39,000  Level Seattle Center
04:10PM 43.8758 -121.1481 167° South 459 528 39,000  Level Seattle Center
04:11PM 43.7506 -121.1092 167° South 464 534 39,000  Level Seattle Center
04:12PM 43.6008 -121.0633 168° South 464 534 39,000  Level Seattle Center
04:13PM 43.4858 -121.0286 168° South 465 535 39,000  Level Seattle Center
04:14PM 43.3589 -120.9900 168° South 466 536 39,000  Level Seattle Center
04:15PM 43.2336 -120.9519 161° South 463 533 39,000  Level Seattle Center
04:16PM 43.1092 -120.8942 158° South 476 548 39,000  Level Seattle Center
04:17PM 42.9878 -120.8261 158° South 477 549 39,000  Level Seattle Center
04:18PM 42.8411 -120.7467 159° South 472 543 39,000  Level Seattle Center
04:19PM 42.7194 -120.6819 158° South 470 541 39,000  Level Seattle Center
04:21PM 42.5969 -120.6153 158° South 471 542 39,000  Level Seattle Center
04:22PM 42.4725 -120.5458 158° South 478 550 39,000  Level Seattle Center
04:23PM 42.3483 -120.4792 159° South 480 552 39,000  Level Seattle Center
04:24PM 42.2231 -120.4150 158° South 479 551 39,000  Level Seattle Center
04:25PM 42.0989 -120.3478 158° South 479 551 39,000  Level Seattle Center
04:26PM 41.9739 -120.2808 158° South 481 554 39,000  Level Seattle Center
04:27PM 41.8475 -120.2128 159° South 485 558 39,000  Level Seattle Center
04:28PM 41.7211 -120.1472 159° South 485 558 39,000  Level Seattle Center
04:29PM 41.5969 -120.0819 158° South 483 556 39,000  Level Seattle Center
04:30PM 41.4733 -120.0169 161° South 478 550 39,000  Level Seattle Center
04:31PM 41.3481 -119.9594 163° South 476 548 39,000  Level Seattle Center
04:32PM 41.1956 -119.8961 163° South 477 549 39,000  Level Seattle Center
04:33PM 41.0633 -119.8425 162° South 486 559 39,000  Level Seattle Center
04:34PM 40.9333 -119.7878 163° South 489 563 39,000  Level Seattle Center
04:35PM 40.8017 -119.7339 163° South 492 566 39,000  Level Seattle Center
04:36PM 40.6700 -119.6800 163° South 493 567 39,000  Level Seattle Center
04:37PM 40.5386 -119.6264 163° South 495 570 39,000  Level Seattle Center
04:38PM 40.4047 -119.5717 163° South 499 574 39,000  Level Seattle Center
04:39PM 40.2717 -119.5181 164° South 501 577 39,000  Level Seattle Center
04:40PM 40.1378 -119.4678 164° South 501 577 39,000  Level Seattle Center
04:41PM 39.9503 -119.3972 163° South 500 575 39,000  Level Oakland Center
04:42PM 39.8161 -119.3436 163° South 500 575 39,000  Level Oakland Center
04:43PM 39.6842 -119.2928 162° South 500 575 39,000  Level Oakland Center
04:44PM 39.5542 -119.2392 164° South 500 575 39,000  Level Oakland Center
04:45PM 39.4197 -119.1886 163° South 500 575 39,000  Level Oakland Center
04:46PM 39.2897 -119.1383 153° Southeast 500 575 39,000  Level Oakland Center
04:47PM 39.1781 -119.0636 140° Southeast 500 575 39,000  Level Oakland Center
04:48PM 39.0697 -118.9461 139° Southeast 500 575 39,000 -60 Level Oakland Center
04:49PM 38.9656 -118.8289 139° Southeast 500 575 38,900 -720 Descending Oakland Center
04:50PM 38.8592 -118.7119 140° Southeast 505 581 37,600 -1,200 Descending Oakland Center
04:51PM 38.7525 -118.5956 140° Southeast 500 575 36,500 -1,140 Descending Oakland Center
04:52PM 38.6458 -118.4794 140° Southeast 500 575 35,400 -780 Descending Oakland Center
04:53PM 38.5392 -118.3661 140° Southeast 500 575 35,000 -240 Descending Oakland Center
04:54PM 38.4342 -118.2533 140° Southeast 500 575 35,000  Level Oakland Center
04:55PM 38.3250 -118.1356 139° Southeast 500 575 35,000  Level Oakland Center
04:56PM 38.2222 -118.0206 141° Southeast 500 575 35,000  Level Oakland Center
04:57PM 38.1150 -117.9086 141° Southeast 500 575 35,000  Level Oakland Center
04:58PM 38.0056 -117.7947 141° Southeast 500 575 35,000  Level Oakland Center
04:59PM 37.8983 -117.6833 141° Southeast 500 575 35,000  Level Oakland Center
05:00PM 37.7886 -117.5700 141° Southeast 506 582 35,000 -600 Level Oakland Center
05:03PM 37.5242 -117.2964 140° Southeast 492 566 33,000 -600 Descending Los Angeles Center
05:04PM 37.4189 -117.1850 143° Southeast 498 573 33,000  Level Los Angeles Center
05:05PM 37.3053 -117.0792 147° Southeast 503 579 33,000  Level Los Angeles Center
05:06PM 37.1869 -116.9839 149° Southeast 509 586 33,000  Level Los Angeles Center
05:07PM 37.0647 -116.8914 146° Southeast 509 586 33,000 -660 Level Los Angeles Center
05:08PM 36.9525 -116.7967 146° Southeast 504 580 31,700 -1,680 Descending Los Angeles Center
05:09PM 36.8425 -116.7025 141° Southeast 498 573 29,700 -1,980 Descending Los Angeles Center
05:10PM 36.7428 -116.6006 136° Southeast 478 550 27,800 -1,920 Descending Los Angeles Center
05:11PM 36.6514 -116.4914 137° Southeast 467 537 25,900 -1,920 Descending Los Angeles Center
05:12PM 36.5642 -116.3903 136° Southeast 451 519 24,000 -2,100 Descending Los Angeles Center
05:13PM 36.4664 -116.2711 135° Southeast 454 522 21,700 -2,040 Descending Los Angeles Center
05:14PM 36.3975 -116.1858 131° Southeast 426 490 20,000 -2,040 Descending Los Angeles Center
05:14PM 36.3225 -116.0775 132° Southeast 410 472 18,000 -2,220 Descending Los Angeles Center
05:15PM 36.2850 -116.0258 127° Southeast 405 466 17,000 -1,440 Descending Los Angeles Center
05:16PM 36.2536 -115.9744 127° Southeast 399 459 16,400 -780 Descending Los Angeles Center
05:17PM 36.1908 -115.8717 113° Southeast 375 432 15,800 -780 Descending Los Angeles Center
05:17PM 36.1719 -115.8178 107° East 321 369 15,300 -840 Descending Los Angeles Center
05:18PM 36.1614 -115.7742 113° Southeast 334 384 15,000 -840 Descending Los Angeles Center
05:19PM 36.1236 -115.6636 111° Southeast 322 371 14,100 -960 Descending Los Angeles Center
05:20PM 36.0939 -115.5686 114° Southeast 322 371 13,100 -1,260 Descending Los Angeles Center
05:20PM 36.0686 -115.4969 113° Southeast 313 360 12,100 -1,440 Descending Los Angeles Center
05:21PM 36.0408 -115.4150 101° East 310 357 11,000 -900 Descending Los Angeles Center
05:22PM 36.0322 -115.3611 97° East 306 352 10,900 -840 Descending Los Angeles Center
05:23PM 36.0233 -115.2661 96° East 294 338 9,800 -1,080 Descending Los Angeles Center
05:23PM 36.0186 -115.2122 93° East 269 310 9,200 -960 Descending Los Angeles Center
05:24PM 36.0139 -115.1175 94° East 276 318 8,300 -720 Descending Los Angeles Center
05:25PM 36.0089 -115.0275 75° East 256 295 7,800 -780 Descending Los Angeles Center
05:27PM 36.0269 -114.9425 341° North 204 235 6,600 -1,080 Descending Los Angeles Center
05:27PM 36.0689 -114.9600 277° West 210 242 5,600 -1,200 Descending Los Angeles Center
05:28PM 36.0756 -115.0242 271° West 180 207 4,500 -1,320 Descending Los Angeles Center
05:29PM 36.0761 -115.0731 271° West 153 176 3,100 -1,140 Descending Los Angeles Center
05:31PM 36.0767 -115.1319 270° West 147 169 2,000 -420 Descending Los Angeles Center
05:32PM 36.0767 -115.1500 270° West 116 133 2,200 60 Climbing Los Angeles Center
05:33PM 36.0769 -115.1964 271° West 116 133 2,200 9,360 Level Los Angeles Center
05:34PM 36.0772 -115.2347 271° West 116 133 21,000 18,780 Climbing Los Angeles Center